Otterburn Park, Canada
Current Conditions -  °F | °C
As of 4:00 AM on Tuesday 21 Oct 2014 (Local Time) from CYHU Reporting Station
Light Rain Light Rain  
Wind Chill: 35°   Ceiling: 6000
Heat Index: 41°   Visibility: 9mi
Dew Point: 39°   Wind: 9mph
Humidity: 93%   Direction: 30°NNE
Pressure: 29.95"   Gusts: NA
Location:  45.53°N, 73.22°W
Report Text: CYHU 210800Z AUTO 03008KT 9SM -RA SCT045 BKN060 OVC069 05/04 A2995 RMK SLP142
Loading
Personal Weather Stations






























Interactive Weather Map
Tropical Storm Tracking
New forecast layout! Learn more

10-Day Weather Forecast

Advertisements
Track Severe Weather on mobile